Aeroporto :
LOGIN :

Iscrizione | Disclaimer

   EN    FR    IT 

 










Sommario :    VFR   VFR Marginale   IFR   IFR Intensivo   IFR Molto Intensivo
Visibilità : 
Base nubi : 
>= 8 km
>= 3000ft
5 / 8 km
1000 / 3000 ft
1500m / 5 km
500 / 1000 ft
800 / 1500m
200 / 500 ft
< 800m
< 200 ft
Simboli :   Temporali  Nebbia  Neve Forte  Precipitazioni Forti  Vento > 20 kt
SIGMETs :   Varie  Temporali  Ghiacco  Turbolenza  Onda orograficha  Ceneri Vulcaniche







- Altitudine del aeroporto : 1470 ft


LSMD - Dubendorf Military

ULTIMO METAR :
  • 260250Z AUTO 00000KT 0900NDV R11/P2000N R29/P2000N FG FEW004 BKN086 11/11 Q1018 RMK

METARs OBSOLETI :
  • 260220Z AUTO 11002KT 3700NDV BR FEW004 OVC083 12/12 Q1018 RMK
  • 260150Z AUTO VRB02KT 4800NDV BR FEW003 OVC082 12/12 Q1017 RMK
  • 260120Z AUTO 00000KT 5000NDV SCT003 SCT045 OVC083 12/12 Q1017 RMK
  • 260050Z AUTO VRB02KT 4700NDV BR FEW004 OVC082 12/12 Q1018 RMK
  • 260020Z AUTO 00000KT 3800NDV BR OVC078 12/12 Q1018 RMK

Previsioni scadute.
Nessun NOTAM noto per questo aeroporto.
1 SIGMET conosciuto per la FIR Switzerland (LSAS) :
 
Turbolenza severa
LSAS SIGMET 1 VALID 260100/260330 LSZH
LSAS SWITZERLAND FIR/UIR SEV TURB FCST WI N4753 E00851 - N4728 E00848 - N4657 E00750 - N4553 E00607 - N4621 E00543 - N4743 E00714 - N4753 E00851 FL220/320 STNR NC=



MetMap, La meteo Aeronautica in un colpo d'occhio ! - Copyright ORBIFLY Dicembre 2007 - Disclaimer

ORBIFLY MET'MAP TEAM :

Programmazione e sviluppo : Alexandra Zaïnal
Concezione e sviluppo : Baudouin d'Aumeries
Co-Programmazione e sviluppo : Marc-Olivier Méhu
Supporto tecnico e logistico : Manuel Goepfert
Aiuto per la traduzione : Arnaldo La Scala

Contatto : metmap@orbifly.com




FONTI E CREDITI :

   NOAA